Weather reports worldwide

Advertisment
Cervera de Pisuerga, Spain (8058): temperature & dewpoint: 06.11.2019 17:00:00 - 12.11.2019 17:00:00 (CET)Cervera de Pisuerga, Spain (8058): wind speed & gusts: 06.11.2019 17:00:00 - 12.11.2019 17:00:00 (CET)Cervera de Pisuerga, Spain (8058): wind direction: 06.11.2019 17:00:00 - 12.11.2019 17:00:00 (CET)Cervera de Pisuerga, Spain (8058): visibility: 06.11.2019 17:00:00 - 12.11.2019 17:00:00 (CET)Cervera de Pisuerga, Spain (8058): sunshine duration: 06.11.2019 17:00:00 - 12.11.2019 17:00:00 (CET)Cervera de Pisuerga, Spain (8058): precipitation: 06.11.2019 17:00:00 - 12.11.2019 17:00:00 (CET)
Date & Time tt [°C] td [°C] ff [km/h] ff [kn] fx [km/h] fx [kn] dd vv [km] sd [min] rr [mm]
12.11.2019 17:00:00 - - - - - - - - - -
12.11.2019 16:00:00 6,5 2,5 10 5 22 12 SW 20 0 0,0
12.11.2019 15:00:00 7,4 1,5 12 6 36 19 W 20 0 0,0
12.11.2019 14:00:00 7,0 0,9 15 8 37 20 W 20 17 0,0
12.11.2019 13:00:00 8,9 1,3 10 5 21 11 W 20 60 -
12.11.2019 12:00:00 8,0 1,9 5 3 21 11 SSE 20 60 0,0
12.11.2019 11:00:00 4,9 0,4 4 2 18 10 W 20 47 0,0
12.11.2019 10:00:00 3,6 1,9 2 1 18 10 SW 20 15 0,0
12.11.2019 09:00:00 1,6 0,2 3 2 8 4 WNW 20 14 0,0
12.11.2019 08:00:00 1,1 -0,7 4 2 15 8 WNW 20 0 0,0
12.11.2019 07:00:00 1,4 -0,5 5 3 16 9 NW 20 0 -
12.11.2019 06:00:00 0,7 -0,7 3 2 18 10 NNW 20 0 0,0
12.11.2019 05:00:00 0,1 -1,2 6 3 18 10 WNW 20 0 0,0
12.11.2019 04:00:00 1,1 -0,7 3 1 8 4 W 20 0 0,0
12.11.2019 03:00:00 1,2 -0,7 4 2 11 6 WNW 20 0 0,0
12.11.2019 02:00:00 1,1 -0,7 5 3 9 5 NW 20 0 0,0
12.11.2019 01:00:00 0,4 -1,0 3 2 10 5 W 20 0 -
12.11.2019 00:00:00 0,7 -0,5 4 2 14 7 NW 20 0 0,0
11.11.2019 23:00:00 0,4 -1,0 5 3 13 7 WNW 20 0 0,0
11.11.2019 22:00:00 1,3 -0,3 4 2 10 6 NW 20 0 0,0
11.11.2019 21:00:00 2,0 0,4 4 2 13 7 W 20 0 0,0
11.11.2019 20:00:00 2,8 0,9 8 5 20 11 NNW 20 0 0,0
11.11.2019 19:00:00 3,2 1,1 8 4 15 8 NW 20 0 -
11.11.2019 18:00:00 3,4 0,9 5 3 26 14 WNW 20 0 0,0
11.11.2019 17:00:00 4,4 1,5 13 7 34 18 N 20 12 0,2
11.11.2019 16:00:00 6,6 1,1 13 7 26 14 N 20 60 0,0
11.11.2019 15:00:00 6,8 1,9 15 8 42 23 N 17 60 0,0
11.11.2019 14:00:00 7,0 2,9 19 10 35 19 N 18 53 0,0
11.11.2019 13:00:00 8,0 3,9 13 7 30 16 N 20 59 -
11.11.2019 12:00:00 6,6 5,1 2 1 10 6 S 20 36 0,0
11.11.2019 11:00:00 2,8 1,9 4 2 21 11 WSW 20 21 0,2
11.11.2019 10:00:00 1,5 0,9 4 2 19 10 W 20 3 0,2
11.11.2019 09:00:00 0,2 -0,5 3 2 15 8 SSE 10 0 0,0
11.11.2019 08:00:00 0,1 -0,7 3 2 13 7 N 1,2 0 0,2
11.11.2019 07:00:00 0,1 -0,7 1 1 15 8 NNW 20 0 -
11.11.2019 06:00:00 0,5 -0,3 3 2 16 9 NNW 20 0 0,2
11.11.2019 05:00:00 0,7 -0,3 3 2 12 6 NNW 20 0 0,0
11.11.2019 04:00:00 0,4 -0,5 6 4 23 12 WNW 20 0 0,0
11.11.2019 03:00:00 0,0 -1,0 5 3 20 11 WNW 20 0 0,0
11.11.2019 02:00:00 -0,1 -1,0 6 4 19 11 WNW 20 0 0,2
11.11.2019 01:00:00 -0,1 -1,0 5 3 17 9 W 20 0 -
11.11.2019 00:00:00 0,2 -0,7 6 3 20 11 NW 20 0 0,0
10.11.2019 23:00:00 0,2 -0,7 3 2 19 10 WSW 20 0 0,2
10.11.2019 22:00:00 0,6 -0,3 4 2 10 5 NW 20 0 0,4
10.11.2019 21:00:00 0,7 -0,3 4 2 17 9 NW 19 0 0,2
10.11.2019 20:00:00 1,1 0,2 5 3 18 10 ESE 20 0 0,6
10.11.2019 19:00:00 1,1 0,0 4 2 20 11 E 20 0 -
10.11.2019 18:00:00 1,3 -0,3 4 2 17 9 WSW 10 0 0,6
10.11.2019 17:00:00 1,8 0,0 8 5 26 14 NW 11 29 1,6
10.11.2019 16:00:00 2,8 1,3 4 2 20 11 WNW 20 37 2,4
10.11.2019 15:00:00 1,3 0,2 7 4 24 13 W 10 0 1,2
10.11.2019 14:00:00 0,9 -0,3 4 2 20 11 WNW 1,3 0 1,2
10.11.2019 13:00:00 1,1 0,2 8 4 18 10 SW 0,4 0 -
10.11.2019 12:00:00 1,5 0,4 5 3 18 10 SW 15 0 0,2
10.11.2019 11:00:00 1,2 0,4 10 5 18 10 SW 0,1 0 0,4
10.11.2019 10:00:00 0,4 -0,5 4 2 18 10 S 2,5 0 0,8
10.11.2019 09:00:00 0,3 -0,5 3 2 16 9 W 1,1 0 0,8
10.11.2019 08:00:00 0,1 -0,7 5 3 21 12 W 7 0 0,0
10.11.2019 07:00:00 0,1 -0,7 4 2 26 14 NW 20 0 -
10.11.2019 06:00:00 0,1 -1,0 5 3 20 11 WNW 2,4 0 0,0
10.11.2019 05:00:00 0,0 -1,0 5 3 23 13 WNW 14 0 0,2
10.11.2019 04:00:00 -0,1 -1,2 7 4 24 13 W 20 0 0,0
10.11.2019 03:00:00 0,1 -1,0 6 3 29 16 W 1,6 0 0,2
10.11.2019 02:00:00 0,4 -0,5 6 3 18 10 NW 14 0 0,0
10.11.2019 01:00:00 0,3 -0,5 7 4 25 14 NW 12 0 -
10.11.2019 00:00:00 0,6 -0,5 9 5 18 10 NNW 2,5 0 1,0
09.11.2019 23:00:00 1,2 0,0 5 3 29 15 NNW 11 0 2,2
09.11.2019 22:00:00 2,6 1,1 7 4 24 13 WNW 9 0 0,4
09.11.2019 21:00:00 3,3 1,3 14 8 34 18 NW 20 0 0,6
09.11.2019 20:00:00 5,6 0,2 10 5 19 10 WNW 20 0 0,0
09.11.2019 19:00:00 6,3 0,0 10 5 - - WSW 20 0 -
09.11.2019 18:00:00 6,8 0,4 14 8 41 22 W 20 3 0,0
09.11.2019 17:00:00 8,4 1,5 10 5 32 17 W 20 38 0,0
09.11.2019 16:00:00 11,0 2,9 11 6 38 21 SW 20 58 0,0
09.11.2019 15:00:00 10,6 3,4 12 7 34 19 SSW 20 58 0,0
09.11.2019 14:00:00 10,0 4,1 11 6 33 18 SSW 20 56 0,0
09.11.2019 13:00:00 9,0 4,5 10 6 29 16 S 20 60 -
09.11.2019 12:00:00 4,7 3,2 11 6 30 16 WSW 20 29 0,0
09.11.2019 11:00:00 3,4 2,5 5 3 10 6 N 20 11 0,4
09.11.2019 10:00:00 1,9 1,1 3 1 18 10 E 13 0 0,8
09.11.2019 09:00:00 1,3 0,2 2 1 15 8 WNW 8 0 0,2
09.11.2019 08:00:00 1,1 0,0 5 3 17 9 ESE 20 0 0,0
09.11.2019 07:00:00 0,6 -0,5 2 1 17 9 WNW 20 0 -
09.11.2019 06:00:00 0,5 -0,7 2 1 10 5 WSW 20 0 0,0
09.11.2019 05:00:00 0,2 -1,0 3 1 13 7 WNW 20 0 0,0
09.11.2019 04:00:00 0,0 -1,2 5 3 9 5 NW 20 0 0,0
09.11.2019 03:00:00 -0,3 -1,7 4 2 11 6 WSW 20 0 0,0
09.11.2019 02:00:00 -0,1 -1,4 5 3 18 10 WNW 20 0 0,0
09.11.2019 01:00:00 -0,6 -2,0 4 2 13 7 NE 20 0 -
09.11.2019 00:00:00 -0,3 -2,0 4 2 9 5 W 20 0 0,0
08.11.2019 23:00:00 0,4 -1,7 4 2 11 6 WNW 20 0 0,0
08.11.2019 22:00:00 0,0 -2,5 3 2 10 5 N 20 0 0,0
08.11.2019 21:00:00 0,5 -2,0 5 3 19 11 SE 20 0 0,0
08.11.2019 20:00:00 1,5 -2,0 5 3 27 15 N 20 0 0,0
08.11.2019 19:00:00 3,5 -5,1 12 7 34 18 NW 20 0 -
08.11.2019 18:00:00 4,3 -2,5 16 9 38 21 NW 20 29 0,0
08.11.2019 17:00:00 5,5 -3,3 17 9 - - NW 20 60 0,0
08.11.2019 16:00:00 7,0 -1,4 13 7 43 23 WNW 20 60 0,0
08.11.2019 15:00:00 5,0 1,1 14 8 - - W 20 60 0,0
08.11.2019 14:00:00 4,5 1,7 16 9 - - WNW 20 55 0,2
08.11.2019 13:00:00 2,7 0,9 16 9 - - WNW 20 51 -
08.11.2019 12:00:00 0,6 -1,0 17 9 48 26 NW 1,4 28 1,6
08.11.2019 11:00:00 1,4 0,2 11 6 27 15 WNW 20 22 1,2
08.11.2019 10:00:00 0,7 -0,3 5 3 21 11 WNW 2,4 1 0,6
08.11.2019 09:00:00 0,4 -0,5 6 3 24 13 WSW 7 0 0,2
08.11.2019 08:00:00 0,2 -0,7 8 4 27 15 W 3,2 0 0,2
08.11.2019 07:00:00 0,3 -0,7 6 3 22 12 WNW 9 0 -
08.11.2019 06:00:00 0,2 -0,7 9 5 39 21 WSW 3,5 0 0,8
08.11.2019 05:00:00 -0,5 -1,7 4 2 18 10 WNW 20 0 0,0
08.11.2019 04:00:00 -0,3 -1,7 5 3 18 10 E 17 0 0,2
08.11.2019 03:00:00 -0,1 -2,0 5 3 10 5 ENE 3,5 0 0,0
08.11.2019 02:00:00 0,3 -2,5 5 3 25 13 ESE 18 0 0,0
08.11.2019 01:00:00 0,7 -3,9 5 3 24 13 WNW 20 0 -
08.11.2019 00:00:00 1,1 -4,5 9 5 25 13 WSW 20 0 0,0
07.11.2019 23:00:00 1,2 -5,4 9 5 25 14 WSW 20 0 0,0
07.11.2019 22:00:00 - - - - - - - - - -
07.11.2019 21:00:00 1,0 -5,1 6 4 33 18 SW 20 0 0,0
07.11.2019 20:00:00 1,4 -4,2 13 7 35 19 WSW 20 0 0,0
07.11.2019 19:00:00 1,7 -3,9 12 6 27 15 WSW 20 0 -
07.11.2019 18:00:00 2,4 -4,2 8 4 29 16 W 20 14 0,0
07.11.2019 17:00:00 3,8 -3,9 8 4 - - SW 20 29 0,0
07.11.2019 16:00:00 5,6 -3,6 12 6 35 19 W 20 58 0,0
07.11.2019 15:00:00 4,4 0,9 10 5 32 18 WSW 20 8 0,0
07.11.2019 14:00:00 5,2 1,7 10 5 35 19 WSW 20 7 0,2
07.11.2019 13:00:00 5,5 -2,5 10 5 31 17 W 20 0 -
07.11.2019 12:00:00 5,7 -2,5 15 8 37 20 SW 20 31 0,0
07.11.2019 11:00:00 6,7 -2,5 11 6 28 15 WSW 20 59 0,0
07.11.2019 10:00:00 5,0 -1,4 7 4 29 15 W 20 59 0,0
07.11.2019 09:00:00 2,8 -0,7 8 4 30 16 W 20 10 0,0
07.11.2019 08:00:00 2,5 -0,5 10 5 30 16 W 20 0 0,0
07.11.2019 07:00:00 3,3 -1,2 9 5 37 20 W 20 0 -
07.11.2019 06:00:00 3,7 -0,3 14 8 39 21 W 20 0 0,0
07.11.2019 05:00:00 4,1 0,9 14 8 35 19 WNW 20 0 0,0
07.11.2019 04:00:00 4,9 3,4 8 4 19 10 W 20 0 0,0
07.11.2019 03:00:00 5,9 5,0 11 6 21 11 NW - 0 0,0
07.11.2019 02:00:00 5,8 4,8 5 3 15 8 NNE 0,2 0 0,0
07.11.2019 01:00:00 6,7 5,3 8 4 19 11 WNW 4,0 0 -
07.11.2019 00:00:00 6,9 5,3 6 4 21 11 SW 20 0 0,0
06.11.2019 23:00:00 6,8 5,3 8 4 24 13 SW 20 0 0,0
06.11.2019 22:00:00 6,5 5,0 8 5 25 14 SSW 13 0 0,2
06.11.2019 21:00:00 6,7 4,8 10 6 29 15 SW 20 0 0,2
06.11.2019 20:00:00 6,6 4,5 9 5 29 15 WSW 11 0 0,0
06.11.2019 19:00:00 6,8 3,9 6 4 20 11 SSW 20 0 -
06.11.2019 18:00:00 7,2 3,9 5 3 21 11 SW 20 0 0,0
06.11.2019 17:00:00 8,3 3,8 10 5 38 20 SW 20 43 0,0

tt = temperature
td = dewpoint
ff = wind speed
fx = gusts
dd = wind direction
vv = visibility
sd = sunshine duration
rr = precipitation

Next stations